createdAt,value
2017-09-25T00:02:34.476Z,7.70
2017-09-25T00:17:34.533Z,6.93
2017-09-25T00:32:35.588Z,6.97
2017-09-25T00:47:34.863Z,7.10
2017-09-25T01:02:38.783Z,7.40
2017-09-25T01:17:34.790Z,6.37
2017-09-25T01:32:34.862Z,7.70
2017-09-25T01:47:35.154Z,7.10
2017-09-25T02:02:35.258Z,5.97
2017-09-25T02:17:35.092Z,6.67
2017-09-25T02:32:35.041Z,7.00
2017-09-25T02:47:34.407Z,8.50
2017-09-25T03:02:35.454Z,7.47
2017-09-25T03:17:36.055Z,6.70
2017-09-25T03:32:37.348Z,7.60
2017-09-25T03:47:34.931Z,7.60
2017-09-25T04:02:37.735Z,7.03
2017-09-25T04:17:39.309Z,8.30
2017-09-25T04:32:36.649Z,8.37
2017-09-25T04:47:37.056Z,7.27
2017-09-25T05:02:35.775Z,8.17
2017-09-25T05:17:37.220Z,8.37
2017-09-25T05:32:34.938Z,8.37
2017-09-25T05:47:35.365Z,9.10
2017-09-25T06:02:35.310Z,10.70
2017-09-25T06:17:38.469Z,9.17
2017-09-25T06:32:35.357Z,9.87
2017-09-25T06:47:36.653Z,15.77
2017-09-25T07:02:35.373Z,9.90
2017-09-25T07:17:36.565Z,10.00
2017-09-25T07:32:34.507Z,9.77
2017-09-25T07:47:34.924Z,8.90
2017-09-25T08:02:34.883Z,11.00
2017-09-25T08:17:34.853Z,10.20
2017-09-25T08:32:34.817Z,10.93
2017-09-25T08:47:34.738Z,9.83
2017-09-25T09:02:35.189Z,9.40
2017-09-25T09:17:35.132Z,10.60
2017-09-25T09:32:37.109Z,13.00
2017-09-25T09:47:36.593Z,10.93
2017-09-25T10:02:34.481Z,12.23
2017-09-25T10:17:34.429Z,11.00
2017-09-25T10:32:35.384Z,11.40
2017-09-25T10:47:35.590Z,10.87
2017-09-25T11:02:34.725Z,10.00
2017-09-25T11:17:34.830Z,10.20
2017-09-25T11:32:37.332Z,8.37
2017-09-25T11:47:35.071Z,9.87
2017-09-25T12:02:35.070Z,7.47
2017-09-25T12:17:34.986Z,7.50
2017-09-25T12:32:34.931Z,7.30
2017-09-25T12:47:34.903Z,8.63
2017-09-25T13:02:34.918Z,10.57
2017-09-25T13:17:36.822Z,15.20
2017-09-25T13:32:36.761Z,16.17
2017-09-25T13:47:34.519Z,16.97
2017-09-25T14:02:34.512Z,17.17
2017-09-25T14:17:34.490Z,15.50
2017-09-25T14:32:34.354Z,16.63
2017-09-25T14:47:36.784Z,19.50
2017-09-25T15:02:35.804Z,19.37
2017-09-25T15:17:34.749Z,23.30
2017-09-25T15:32:34.699Z,23.50
2017-09-25T15:47:35.117Z,23.37
2017-09-25T16:02:35.037Z,25.67
2017-09-25T16:17:37.666Z,28.37
2017-09-25T16:32:35.040Z,25.77
2017-09-25T16:47:36.287Z,29.77
2017-09-25T17:02:34.395Z,31.13
2017-09-25T17:17:40.608Z,29.20
2017-09-25T17:32:39.367Z,27.20
2017-09-25T17:47:34.715Z,27.63
2017-09-25T18:02:34.772Z,26.80
2017-09-25T18:17:36.717Z,23.50
2017-09-25T18:32:36.578Z,23.77
2017-09-25T18:47:35.036Z,22.80
2017-09-25T19:02:34.995Z,21.90
2017-09-25T19:17:34.916Z,21.33
2017-09-25T19:32:38.970Z,20.57
2017-09-25T19:47:50.252Z,24.93
2017-09-25T20:02:35.355Z,20.87
2017-09-25T20:17:36.040Z,21.23
2017-09-25T20:32:35.569Z,19.67
2017-09-25T20:47:34.630Z,20.63
2017-09-25T21:02:35.349Z,24.40
2017-09-25T21:17:34.631Z,21.30
2017-09-25T21:32:37.571Z,21.93
2017-09-25T21:47:34.944Z,18.80
2017-09-25T22:02:36.917Z,19.17
2017-09-25T22:17:36.887Z,21.30
2017-09-25T22:32:34.894Z,23.23
2017-09-25T22:47:35.252Z,24.20
2017-09-25T23:02:37.222Z,19.00
2017-09-25T23:17:37.139Z,19.83
2017-09-25T23:32:36.214Z,20.27
2017-09-25T23:47:34.515Z,18.17
